Angola, New York
Current Conditions -  °F | °C
As of 7:01 PM on Thursday 27 Nov 2014 (Local Time) from KDKK Reporting Station
Light Snow Light Snow  
Wind Chill: 23°   Ceiling: 1500
Heat Index: 32°   Visibility: 4mi
Dew Point: 28°   Wind: 12mph
Humidity: 85%   Direction: 270°W
Pressure: 30.09"   Gusts: NA
Location:  42.64°N, 79.03°W
Report Text: KDKK 280001Z AUTO 27010KT 4SM -SN BR BKN015 OVC020 00/M02 A3009 RMK AO2 P0000 T00001022
Loading
Personal Weather Stations






























Interactive Weather Map New forecast layout! Learn more

10-Day Weather Forecast

Advertisements
Track Severe Weather on mobile